KWMC/WMC METAR and TAF weather

Enter ICAO airport designator
Station Type Date Time Source
KWMC METAR 2020/01/17 21:56 UTC NOAA

KWMC 172156Z AUTO 26011KT 10SM CLR 04/M11 A3020 RMK AO2 SLP235 T00441106


Station Type Date Time Source
KWMC Decoded METAR 2020/01/17 21:56 UTC NOAA

WINNEMUCCA MUNICIPAL AIRPORT, NV, United States (KWMC) 40-54N 117-48W 1310M
Jan 17, 2020 - 04:56 PM EST / 2020.01.17 2156 UTC
Wind: from the W (260 degrees) at 13 MPH (11 KT):0
Visibility: 10 mile(s):0
Sky conditions: clear
Temperature: 39.9 F (4.4 C)
Dew Point: 12.9 F (-10.6 C)
Relative Humidity: 32%
Pressure (altimeter): 30.2 in. Hg (1022 hPa)
ob: KWMC 172156Z AUTO 26011KT 10SM CLR 04/M11 A3020 RMK AO2 SLP235 T00441106
cycle: 22

Station Type Date Time Source
KWMC TAF 2020/01/17 18:45 UTC NOAA

TAF KWMC 171743Z 1718/1818 25011KT P6SM BKN050
FM172100 22009KT P6SM SCT050 BKN150
FM180200 14006KT P6SM OVC150

Example: see airport list